createdAt,value
2024-04-19T00:00:23.358Z,135.72
2024-04-19T00:01:23.405Z,135.73
2024-04-19T00:02:23.371Z,135.20
2024-04-19T00:03:23.565Z,135.52
2024-04-19T00:04:23.562Z,135.12
2024-04-19T00:05:23.501Z,134.70
2024-04-19T00:06:23.558Z,135.57
2024-04-19T00:07:23.584Z,135.79
2024-04-19T00:08:23.647Z,136.61
2024-04-19T00:09:23.695Z,134.88
2024-04-19T00:10:23.706Z,135.03
2024-04-19T00:11:23.899Z,135.05
2024-04-19T00:12:23.856Z,134.80
2024-04-19T00:13:23.848Z,135.67
2024-04-19T00:14:23.869Z,136.34
2024-04-19T00:15:23.936Z,134.63
2024-04-19T00:16:23.998Z,135.89
2024-04-19T00:17:24.006Z,135.46
2024-04-19T00:18:24.088Z,134.46
2024-04-19T00:19:24.099Z,135.72
2024-04-19T00:20:24.110Z,134.59
2024-04-19T00:21:24.169Z,134.15
2024-04-19T00:22:24.212Z,135.65
2024-04-19T00:23:24.238Z,134.47
2024-04-19T00:24:24.271Z,135.60
2024-04-19T00:25:24.255Z,135.64
2024-04-19T00:26:24.284Z,134.69
2024-04-19T00:27:24.393Z,134.85
2024-04-19T00:28:24.355Z,135.04
2024-04-19T00:29:24.356Z,135.20
2024-04-19T00:30:24.386Z,134.00
2024-04-19T00:31:24.409Z,135.46
2024-04-19T00:32:24.442Z,134.41
2024-04-19T00:33:24.540Z,135.47
2024-04-19T00:34:24.567Z,134.45
2024-04-19T00:35:24.456Z,134.73
2024-04-19T00:36:24.554Z,135.09
2024-04-19T00:37:25.314Z,135.40
2024-04-19T00:38:24.565Z,135.95
2024-04-19T00:39:24.695Z,134.47
2024-04-19T00:40:24.652Z,135.18
2024-04-19T00:41:24.677Z,136.07
2024-04-19T00:42:24.677Z,134.67
2024-04-19T00:43:24.774Z,135.12
2024-04-19T00:44:24.818Z,135.46
2024-04-19T00:45:24.794Z,134.11
2024-04-19T00:46:24.795Z,135.64
2024-04-19T00:47:24.878Z,134.67
2024-04-19T00:48:24.885Z,135.52
2024-04-19T00:49:24.864Z,135.00
2024-04-19T00:50:24.899Z,135.56
2024-04-19T00:51:24.993Z,134.93
2024-04-19T00:52:24.952Z,133.68
2024-04-19T00:53:25.013Z,135.23
2024-04-19T00:54:25.101Z,135.78
2024-04-19T00:55:25.040Z,134.07
2024-04-19T00:56:25.060Z,134.69
2024-04-19T00:57:25.140Z,133.76
2024-04-19T00:58:25.122Z,135.65
2024-04-19T00:59:25.160Z,135.29
2024-04-19T01:00:25.244Z,135.07
2024-04-19T01:01:25.267Z,134.03
2024-04-19T01:02:25.261Z,133.25
2024-04-19T01:03:25.266Z,134.36
2024-04-19T01:04:25.241Z,135.46
2024-04-19T01:05:25.264Z,134.95
2024-04-19T01:06:25.283Z,134.59
2024-04-19T01:07:25.259Z,134.42
2024-04-19T01:08:25.271Z,134.22
2024-04-19T01:09:25.274Z,133.88
2024-04-19T01:10:25.255Z,133.75
2024-04-19T01:11:25.294Z,134.66
2024-04-19T01:12:25.841Z,134.61
2024-04-19T01:13:25.270Z,134.34
2024-04-19T01:14:25.292Z,135.00
2024-04-19T01:15:25.331Z,135.33
2024-04-19T01:16:25.318Z,135.65
2024-04-19T01:17:25.315Z,134.98
2024-04-19T01:18:25.405Z,134.82
2024-04-19T01:19:25.319Z,134.62
2024-04-19T01:20:25.335Z,134.20
2024-04-19T01:21:25.361Z,135.39
2024-04-19T01:22:25.318Z,133.83
2024-04-19T01:23:25.342Z,134.72
2024-04-19T01:24:25.373Z,135.28
2024-04-19T01:25:25.312Z,134.27
2024-04-19T01:26:25.324Z,134.89
2024-04-19T01:27:25.380Z,134.37
2024-04-19T01:28:25.349Z,133.70
2024-04-19T01:29:25.349Z,135.06
2024-04-19T01:30:25.430Z,133.71
2024-04-19T01:31:25.355Z,134.71
2024-04-19T01:32:25.430Z,134.40
2024-04-19T01:33:25.575Z,135.30
2024-04-19T01:34:25.444Z,133.90
2024-04-19T01:35:25.405Z,134.06
2024-04-19T01:36:25.441Z,134.05
2024-04-19T01:37:25.406Z,134.42
2024-04-19T01:38:25.419Z,133.82
2024-04-19T01:39:25.463Z,134.24
2024-04-19T01:40:25.420Z,134.93
2024-04-19T01:41:25.453Z,134.54
2024-04-19T01:42:25.490Z,134.16
2024-04-19T01:43:25.455Z,133.19
2024-04-19T01:44:25.442Z,133.10
2024-04-19T01:45:25.536Z,134.78
2024-04-19T01:46:25.470Z,134.21
2024-04-19T01:47:25.532Z,134.55
2024-04-19T01:48:25.545Z,133.68
2024-04-19T01:49:25.467Z,134.50
2024-04-19T01:50:25.496Z,135.08
2024-04-19T01:51:25.529Z,134.37
2024-04-19T01:52:25.504Z,134.05
2024-04-19T01:53:25.506Z,133.17
2024-04-19T01:54:25.519Z,134.14
2024-04-19T01:55:25.525Z,133.89
2024-04-19T01:56:25.510Z,134.19
2024-04-19T01:57:25.555Z,133.75
2024-04-19T01:58:25.550Z,133.97
2024-04-19T01:59:25.542Z,133.96
2024-04-19T02:00:25.563Z,134.40
2024-04-19T02:01:25.623Z,133.84
2024-04-19T02:02:25.622Z,134.15
2024-04-19T02:03:25.618Z,133.65
2024-04-19T02:04:25.644Z,134.07
2024-04-19T02:05:25.579Z,134.43
2024-04-19T02:06:25.617Z,134.23
2024-04-19T02:07:25.647Z,133.48
2024-04-19T02:08:25.628Z,133.63
2024-04-19T02:09:25.680Z,134.26
2024-04-19T02:10:25.627Z,133.10
2024-04-19T02:11:25.664Z,134.69
2024-04-19T02:12:25.736Z,133.57
2024-04-19T02:13:25.684Z,133.59
2024-04-19T02:14:25.668Z,134.57
2024-04-19T02:15:25.710Z,133.82
2024-04-19T02:16:25.664Z,133.65
2024-04-19T02:17:25.712Z,135.59
2024-04-19T02:18:25.785Z,134.34
2024-04-19T02:19:25.709Z,132.73
2024-04-19T02:20:25.707Z,134.12
2024-04-19T02:21:25.765Z,132.64
2024-04-19T02:22:25.750Z,134.54
2024-04-19T02:23:25.758Z,133.73
2024-04-19T02:24:25.792Z,133.56
2024-04-19T02:25:25.836Z,133.41
2024-04-19T02:26:25.808Z,133.10
2024-04-19T02:27:25.924Z,134.32
2024-04-19T02:28:25.815Z,135.09
2024-04-19T02:29:25.861Z,134.37
2024-04-19T02:30:25.884Z,134.06
2024-04-19T02:31:25.850Z,134.05
2024-04-19T02:32:25.942Z,133.48
2024-04-19T02:33:26.098Z,132.94
2024-04-19T02:34:25.922Z,134.16
2024-04-19T02:35:25.921Z,132.86
2024-04-19T02:36:25.918Z,134.04
2024-04-19T02:37:25.885Z,133.90
2024-04-19T02:38:25.905Z,133.62
2024-04-19T02:39:25.954Z,133.00
2024-04-19T02:40:25.933Z,133.52
2024-04-19T02:41:25.945Z,133.45
2024-04-19T02:42:25.969Z,134.42
2024-04-19T02:43:25.963Z,132.19
2024-04-19T02:44:26.000Z,132.52
2024-04-19T02:45:26.047Z,132.73
2024-04-19T02:46:26.187Z,133.86
2024-04-19T02:47:26.053Z,133.54
2024-04-19T02:48:26.054Z,133.14
2024-04-19T02:49:26.056Z,133.19
2024-04-19T02:50:26.072Z,133.49
2024-04-19T02:51:26.170Z,133.44
2024-04-19T02:52:26.137Z,134.03
2024-04-19T02:53:26.140Z,133.57
2024-04-19T02:54:26.228Z,134.04
2024-04-19T02:55:26.137Z,134.12
2024-04-19T02:56:26.154Z,133.66
2024-04-19T02:57:26.212Z,133.25
2024-04-19T02:58:26.170Z,134.34
2024-04-19T02:59:26.193Z,133.07
2024-04-19T03:00:26.251Z,132.67
2024-04-19T03:01:26.273Z,132.48
2024-04-19T03:02:26.220Z,133.04
2024-04-19T03:03:26.347Z,132.65
2024-04-19T03:04:26.264Z,133.27
2024-04-19T03:05:26.270Z,133.12
2024-04-19T03:06:26.359Z,132.50
2024-04-19T03:07:26.266Z,133.12
2024-04-19T03:08:26.298Z,132.88
2024-04-19T03:09:26.339Z,132.86
2024-04-19T03:10:26.298Z,133.52
2024-04-19T03:11:26.363Z,133.12
2024-04-19T03:12:26.359Z,134.00
2024-04-19T03:13:26.383Z,133.33
2024-04-19T03:14:26.393Z,133.66
2024-04-19T03:15:26.414Z,133.75
2024-04-19T03:16:26.385Z,132.93
2024-04-19T03:17:26.426Z,134.18
2024-04-19T03:18:26.581Z,132.38
2024-04-19T03:19:26.418Z,133.04
2024-04-19T03:20:26.456Z,131.19
2024-04-19T03:21:26.466Z,132.77
2024-04-19T03:22:26.468Z,132.22
2024-04-19T03:23:26.480Z,132.30
2024-04-19T03:24:26.527Z,132.82
2024-04-19T03:25:26.475Z,133.27
2024-04-19T03:26:26.508Z,132.53
2024-04-19T03:27:26.561Z,131.53
2024-04-19T03:28:26.563Z,134.04
2024-04-19T03:29:26.561Z,134.21
2024-04-19T03:30:26.656Z,133.07
2024-04-19T03:31:26.599Z,133.85
2024-04-19T03:32:26.799Z,133.44
2024-04-19T03:33:26.663Z,131.64
2024-04-19T03:34:26.620Z,132.70
2024-04-19T03:35:26.621Z,132.05
2024-04-19T03:36:26.710Z,133.53
2024-04-19T03:37:26.637Z,133.17
2024-04-19T03:38:26.667Z,133.84
2024-04-19T03:39:26.856Z,130.89
2024-04-19T03:40:26.685Z,133.71
2024-04-19T03:41:26.691Z,133.50
2024-04-19T03:42:26.744Z,134.18
2024-04-19T03:43:26.721Z,133.86
2024-04-19T03:44:26.728Z,132.82
2024-04-19T03:45:26.796Z,133.14
2024-04-19T03:46:26.745Z,131.87
2024-04-19T03:47:26.796Z,132.22
2024-04-19T03:48:26.856Z,132.63
2024-04-19T03:49:26.812Z,132.36
2024-04-19T03:50:26.849Z,132.07
2024-04-19T03:51:26.826Z,132.05
2024-04-19T03:52:26.847Z,132.36
2024-04-19T03:53:26.849Z,133.07
2024-04-19T03:54:26.908Z,131.61
2024-04-19T03:55:26.892Z,132.58
2024-04-19T03:56:28.868Z,133.22
2024-04-19T03:57:26.940Z,133.84
2024-04-19T03:58:26.902Z,133.03
2024-04-19T03:59:26.966Z,132.91
2024-04-19T04:00:27.051Z,132.36
2024-04-19T04:01:26.994Z,132.12
2024-04-19T04:02:29.156Z,131.61
2024-04-19T04:03:27.008Z,132.65
2024-04-19T04:04:27.080Z,131.03
2024-04-19T04:05:27.038Z,133.49
2024-04-19T04:06:27.074Z,132.22
2024-04-19T04:07:27.058Z,133.16
2024-04-19T04:08:27.081Z,132.52
2024-04-19T04:09:27.132Z,132.81
2024-04-19T04:10:27.081Z,132.28
2024-04-19T04:11:27.150Z,131.49
2024-04-19T04:12:27.156Z,133.32
2024-04-19T04:13:27.168Z,132.46
2024-04-19T04:14:27.149Z,131.50
2024-04-19T04:15:27.226Z,132.29
2024-04-19T04:16:27.181Z,133.97
2024-04-19T04:17:27.267Z,131.19
2024-04-19T04:18:27.332Z,132.73
2024-04-19T04:19:27.284Z,133.09
2024-04-19T04:20:34.444Z,50.00
2024-04-19T04:21:34.440Z,50.00
2024-04-19T04:22:34.463Z,50.00
2024-04-19T04:23:34.426Z,50.00
2024-04-19T04:24:34.514Z,50.00
2024-04-19T04:25:34.446Z,50.92
2024-04-19T04:26:34.427Z,51.04
2024-04-19T04:27:34.493Z,49.86
2024-04-19T04:28:34.445Z,51.42
2024-04-19T04:29:34.440Z,52.26
2024-04-19T04:30:34.463Z,54.22
2024-04-19T04:31:41.660Z,50.00
2024-04-19T04:32:41.655Z,50.00
2024-04-19T04:33:41.673Z,50.00
2024-04-19T04:34:41.648Z,50.00
2024-04-19T04:35:41.627Z,50.00
2024-04-19T04:36:41.695Z,51.48
2024-04-19T04:37:41.660Z,52.07
2024-04-19T04:38:41.673Z,51.31
2024-04-19T04:39:41.731Z,50.00
2024-04-19T04:40:41.656Z,52.90
2024-04-19T04:41:41.667Z,52.88
2024-04-19T04:42:41.684Z,53.63
2024-04-19T04:43:41.667Z,51.80
2024-04-19T04:44:41.656Z,52.81
2024-04-19T04:45:41.661Z,50.00
2024-04-19T04:46:41.670Z,51.52
2024-04-19T04:47:41.701Z,54.25
2024-04-19T04:48:41.740Z,53.19
2024-04-19T04:49:41.663Z,51.73
2024-04-19T04:50:41.688Z,51.38
2024-04-19T04:51:41.694Z,52.35
2024-04-19T04:52:41.679Z,53.24
2024-04-19T04:53:41.658Z,52.77
2024-04-19T04:54:41.727Z,53.93
2024-04-19T04:55:41.669Z,53.46
2024-04-19T04:56:41.679Z,50.88
2024-04-19T04:57:41.674Z,55.46
2024-04-19T04:58:41.677Z,53.12
2024-04-19T04:59:41.698Z,52.88
2024-04-19T05:00:41.717Z,53.00
2024-04-19T05:01:41.727Z,52.33
2024-04-19T05:02:41.669Z,53.50
2024-04-19T05:03:41.708Z,53.46
2024-04-19T05:04:41.692Z,52.18
2024-04-19T05:05:41.664Z,52.53
2024-04-19T05:06:41.706Z,53.40
2024-04-19T05:07:41.691Z,51.77
2024-04-19T05:08:41.679Z,50.02
2024-04-19T05:09:41.694Z,52.96
2024-04-19T05:10:41.703Z,54.12
2024-04-19T05:11:41.763Z,50.79
2024-04-19T05:12:41.697Z,54.03
2024-04-19T05:13:41.669Z,52.51
2024-04-19T05:14:41.721Z,54.25
2024-04-19T05:15:41.713Z,54.35
2024-04-19T05:16:41.665Z,52.88
2024-04-19T05:17:41.707Z,52.16
2024-04-19T05:18:41.835Z,54.24
2024-04-19T05:19:41.784Z,51.63
2024-04-19T05:20:41.687Z,54.64
2024-04-19T05:21:41.774Z,52.36
2024-04-19T05:22:41.728Z,54.52
2024-04-19T05:23:41.690Z,56.40
2024-04-19T05:24:41.708Z,50.91
2024-04-19T05:25:41.710Z,51.34
2024-04-19T05:26:41.740Z,51.39
2024-04-19T05:27:41.699Z,52.19
2024-04-19T05:28:41.799Z,55.01
2024-04-19T05:29:41.746Z,54.57
2024-04-19T05:30:41.857Z,52.63
2024-04-19T05:31:41.811Z,53.81
2024-04-19T05:32:41.777Z,54.04
2024-04-19T05:33:41.923Z,53.92
2024-04-19T05:34:41.814Z,52.16
2024-04-19T05:35:41.804Z,51.65
2024-04-19T05:36:41.782Z,51.87
2024-04-19T05:37:41.716Z,54.30
2024-04-19T05:38:41.706Z,52.84
2024-04-19T05:39:41.754Z,56.71
2024-04-19T05:40:41.772Z,58.45
2024-04-19T05:41:41.740Z,62.02
2024-04-19T05:42:42.264Z,64.85
2024-04-19T05:43:41.720Z,69.35
2024-04-19T05:44:41.729Z,70.82
2024-04-19T05:45:41.822Z,77.43
2024-04-19T05:46:41.709Z,78.87
2024-04-19T05:47:41.810Z,81.82
2024-04-19T05:48:41.908Z,82.62
2024-04-19T05:49:41.770Z,84.49
2024-04-19T05:50:41.795Z,87.21
2024-04-19T05:51:41.769Z,89.99
2024-04-19T05:52:41.729Z,89.01
2024-04-19T05:53:41.735Z,91.46
2024-04-19T05:54:41.791Z,90.91
2024-04-19T05:55:42.264Z,93.47
2024-04-19T05:56:41.869Z,94.90
2024-04-19T05:57:42.001Z,96.07
2024-04-19T05:58:41.998Z,97.04
2024-04-19T05:59:42.125Z,98.66
2024-04-19T06:00:42.195Z,99.39
2024-04-19T06:01:43.448Z,98.62
2024-04-19T06:02:42.337Z,99.26
2024-04-19T06:03:42.421Z,99.70
2024-04-19T06:04:42.388Z,101.98
2024-04-19T06:05:43.278Z,101.51
2024-04-19T06:06:42.614Z,103.02
2024-04-19T06:07:43.268Z,104.14
2024-04-19T06:08:42.742Z,103.25
2024-04-19T06:09:42.790Z,105.46
2024-04-19T06:10:43.301Z,104.06
2024-04-19T06:11:42.930Z,106.83
2024-04-19T06:12:42.994Z,104.48
2024-04-19T06:13:43.074Z,105.59
2024-04-19T06:14:43.103Z,106.52
2024-04-19T06:15:43.224Z,106.96
2024-04-19T06:16:43.217Z,107.53
2024-04-19T06:17:43.368Z,106.82
2024-04-19T06:18:43.485Z,105.43
2024-04-19T06:19:43.422Z,108.01
2024-04-19T06:20:44.300Z,107.39
2024-04-19T06:21:43.616Z,107.51
2024-04-19T06:22:43.618Z,110.15
2024-04-19T06:23:43.686Z,107.77
2024-04-19T06:24:43.753Z,107.44
2024-04-19T06:25:44.286Z,107.81
2024-04-19T06:26:43.896Z,108.96
2024-04-19T06:27:44.004Z,108.59
2024-04-19T06:28:44.053Z,108.17
2024-04-19T06:29:44.138Z,109.91
2024-04-19T06:30:44.365Z,109.31
2024-04-19T06:31:44.245Z,109.15
2024-04-19T06:32:44.374Z,109.68
2024-04-19T06:33:44.393Z,109.58
2024-04-19T06:34:44.489Z,109.43
2024-04-19T06:35:44.895Z,111.42
2024-04-19T06:36:44.602Z,107.94
2024-04-19T06:37:44.603Z,107.15
2024-04-19T06:38:45.287Z,96.60
2024-04-19T06:39:54.301Z,81.90
2024-04-19T06:40:45.789Z,74.96
2024-04-19T06:41:44.692Z,67.00
2024-04-19T06:42:44.749Z,60.56
2024-04-19T06:43:44.705Z,37.84
2024-04-19T06:44:44.683Z,22.75
2024-04-19T06:45:44.936Z,33.34
2024-04-19T06:46:44.735Z,46.99
2024-04-19T06:47:44.791Z,48.42
2024-04-19T06:48:44.793Z,50.48
2024-04-19T06:49:44.700Z,50.26
2024-04-19T06:50:44.790Z,51.90
2024-04-19T06:51:44.945Z,50.19
2024-04-19T06:52:44.705Z,50.37
2024-04-19T06:53:44.778Z,51.51
2024-04-19T06:54:44.863Z,51.99
2024-04-19T06:55:44.885Z,50.02
2024-04-19T06:56:45.000Z,55.30
2024-04-19T06:57:45.063Z,50.00
2024-04-19T06:58:45.083Z,49.65
2024-04-19T06:59:45.102Z,50.89
2024-04-19T07:01:45.204Z,50.87
2024-04-19T07:02:45.130Z,50.00
2024-04-19T07:03:45.182Z,54.33
2024-04-19T07:04:45.216Z,56.79
2024-04-19T07:05:45.162Z,60.34
2024-04-19T07:06:46.967Z,62.80
2024-04-19T07:07:45.220Z,68.00
2024-04-19T07:08:45.186Z,67.82
2024-04-19T07:09:45.360Z,65.06
2024-04-19T07:10:45.218Z,80.08
2024-04-19T07:11:45.161Z,84.44
2024-04-19T07:12:45.169Z,89.34
2024-04-19T07:13:45.181Z,91.18
2024-04-19T07:14:45.301Z,92.26
2024-04-19T07:15:45.206Z,93.62
2024-04-19T07:16:45.199Z,91.03
2024-04-19T07:17:45.180Z,89.06
2024-04-19T07:18:45.244Z,87.65
2024-04-19T07:19:45.297Z,90.09
2024-04-19T07:20:45.209Z,88.82
2024-04-19T07:21:45.246Z,83.19
2024-04-19T07:22:45.201Z,87.78
2024-04-19T07:23:45.291Z,85.76
2024-04-19T07:24:45.307Z,92.12
2024-04-19T07:25:45.344Z,89.54
2024-04-19T07:26:45.199Z,81.28
2024-04-19T07:27:46.878Z,73.96
2024-04-19T07:28:45.194Z,74.73
2024-04-19T07:29:45.176Z,71.10
2024-04-19T07:30:45.236Z,76.08
2024-04-19T07:31:45.231Z,75.49
2024-04-19T07:32:45.234Z,73.82
2024-04-19T07:33:45.271Z,74.95
2024-04-19T07:34:45.302Z,78.33
2024-04-19T07:35:45.318Z,72.45
2024-04-19T07:36:45.406Z,70.81
2024-04-19T07:37:45.473Z,62.72
2024-04-19T07:38:45.512Z,54.13
2024-04-19T07:39:45.961Z,55.59
2024-04-19T07:40:46.333Z,58.00
2024-04-19T07:41:45.779Z,57.95
2024-04-19T07:42:45.662Z,59.91
2024-04-19T07:43:50.129Z,60.93
2024-04-19T07:44:46.717Z,61.22
2024-04-19T07:45:45.760Z,48.65
2024-04-19T07:46:45.719Z,21.94
2024-04-19T07:47:45.773Z,0.00
2024-04-19T07:48:45.817Z,0.00
2024-04-19T07:49:45.755Z,0.00
2024-04-19T07:50:45.721Z,0.00
2024-04-19T07:51:45.836Z,0.00
2024-04-19T07:52:45.728Z,0.00
2024-04-19T07:53:45.743Z,0.00
2024-04-19T07:54:45.888Z,7.68
2024-04-19T07:55:45.717Z,17.13
2024-04-19T07:56:45.721Z,28.49
2024-04-19T07:57:45.767Z,50.00
2024-04-19T07:58:45.734Z,50.00
2024-04-19T07:59:45.831Z,50.00
2024-04-19T08:00:45.856Z,59.00
2024-04-19T08:01:45.749Z,55.15
2024-04-19T08:02:45.736Z,61.63
2024-04-19T08:03:45.757Z,58.15
2024-04-19T08:04:45.898Z,56.53
2024-04-19T08:05:45.916Z,54.88
2024-04-19T08:06:45.769Z,60.29
2024-04-19T08:07:45.739Z,69.09
2024-04-19T08:08:45.750Z,92.75
2024-04-19T08:09:45.807Z,118.66
2024-04-19T08:10:45.742Z,140.12
2024-04-19T08:11:45.837Z,143.96
2024-04-19T08:12:45.945Z,148.45
2024-04-19T08:13:45.989Z,154.12
2024-04-19T08:14:45.941Z,160.13
2024-04-19T08:15:46.006Z,159.25
2024-04-19T08:16:46.073Z,163.05
2024-04-19T08:17:46.091Z,155.45
2024-04-19T08:18:46.147Z,156.50
2024-04-19T08:19:46.182Z,163.79
2024-04-19T08:20:46.223Z,168.76
2024-04-19T08:21:46.313Z,169.69
2024-04-19T08:22:46.358Z,159.62
2024-04-19T08:23:46.380Z,159.04
2024-04-19T08:24:46.507Z,155.84
2024-04-19T08:25:46.515Z,146.07
2024-04-19T08:26:46.577Z,137.32
2024-04-19T08:27:46.697Z,123.85
2024-04-19T08:28:46.748Z,111.93
2024-04-19T08:29:46.692Z,98.69
2024-04-19T08:30:46.735Z,86.51
2024-04-19T08:31:46.808Z,77.13
2024-04-19T08:32:47.414Z,70.19
2024-04-19T08:33:46.792Z,52.79
2024-04-19T08:34:46.782Z,50.76
2024-04-19T08:35:46.840Z,50.40
2024-04-19T08:36:46.915Z,50.46
2024-04-19T08:37:46.941Z,50.00
2024-04-19T08:38:47.026Z,50.89
2024-04-19T08:39:47.200Z,50.00
2024-04-19T08:40:47.146Z,50.13
2024-04-19T08:41:47.186Z,51.21
2024-04-19T08:42:47.324Z,50.46
2024-04-19T08:43:47.362Z,50.00
2024-04-19T08:44:47.311Z,58.67
2024-04-19T08:45:47.467Z,67.68
2024-04-19T08:46:47.440Z,80.11
2024-04-19T08:47:47.636Z,94.80
2024-04-19T08:48:47.705Z,102.97
2024-04-19T08:49:47.604Z,114.49
2024-04-19T08:50:47.883Z,118.66
2024-04-19T08:52:00.476Z,139.12
2024-04-19T08:53:09.472Z,139.57
2024-04-19T08:53:48.749Z,139.26
2024-04-19T08:54:47.734Z,139.71
2024-04-19T08:55:47.667Z,142.50
2024-04-19T08:56:47.681Z,145.36
2024-04-19T08:57:47.725Z,165.39
2024-04-19T08:58:51.026Z,201.57
2024-04-19T08:59:55.381Z,201.91
2024-04-19T09:00:48.987Z,201.88
2024-04-19T09:01:47.743Z,196.15
2024-04-19T09:02:47.749Z,185.56
2024-04-19T09:03:47.796Z,184.72
2024-04-19T09:04:47.871Z,182.57
2024-04-19T09:05:47.870Z,190.59
2024-04-19T09:06:47.763Z,197.96
2024-04-19T09:07:47.689Z,200.84
2024-04-19T09:08:47.700Z,198.51
2024-04-19T09:09:47.680Z,191.30
2024-04-19T09:10:47.702Z,187.39
2024-04-19T09:11:47.724Z,187.77
2024-04-19T09:12:47.816Z,184.05
2024-04-19T09:13:47.730Z,186.50
2024-04-19T09:14:47.787Z,189.71
2024-04-19T09:15:47.772Z,197.17
2024-04-19T09:16:47.717Z,200.80
2024-04-19T09:17:47.789Z,201.89
2024-04-19T09:18:47.798Z,200.09
2024-04-19T09:19:47.700Z,200.00
2024-04-19T09:20:47.835Z,198.88
2024-04-19T09:21:47.784Z,199.28
2024-04-19T09:22:47.730Z,200.00
2024-04-19T09:23:47.762Z,200.00
2024-04-19T09:24:47.907Z,198.98
2024-04-19T09:25:47.856Z,195.88
2024-04-19T09:26:47.847Z,196.71
2024-04-19T09:27:47.871Z,195.57
2024-04-19T09:28:47.963Z,197.90
2024-04-19T09:29:47.865Z,196.60
2024-04-19T09:30:47.968Z,196.73
2024-04-19T09:31:47.909Z,195.50
2024-04-19T09:32:48.034Z,198.02
2024-04-19T09:33:48.089Z,196.51
2024-04-19T09:34:47.947Z,193.24
2024-04-19T09:35:48.361Z,195.05
2024-04-19T09:36:48.001Z,200.36
2024-04-19T09:37:48.035Z,200.89
2024-04-19T09:38:48.108Z,200.00
2024-04-19T09:39:48.285Z,200.00
2024-04-19T09:40:48.359Z,200.00
2024-04-19T09:41:48.221Z,200.12
2024-04-19T09:42:48.440Z,199.46
2024-04-19T09:43:48.281Z,199.45
2024-04-19T09:44:48.312Z,200.00
2024-04-19T09:45:48.425Z,199.32
2024-04-19T09:46:48.428Z,200.31
2024-04-19T09:47:48.423Z,198.45
2024-04-19T09:48:48.480Z,200.00
2024-04-19T09:49:48.462Z,199.65
2024-04-19T09:50:48.488Z,199.75
2024-04-19T09:51:48.667Z,198.95
2024-04-19T09:52:48.563Z,199.91
2024-04-19T09:53:48.605Z,200.00
2024-04-19T09:54:48.696Z,199.23
2024-04-19T09:55:48.643Z,199.46
2024-04-19T09:56:48.668Z,199.58
2024-04-19T09:57:48.755Z,200.00
2024-04-19T09:58:48.737Z,200.00
2024-04-19T09:59:48.807Z,199.62
2024-04-19T10:00:49.007Z,199.62
2024-04-19T10:01:48.921Z,199.57
2024-04-19T10:02:48.883Z,199.66
2024-04-19T10:03:48.988Z,200.23
2024-04-19T10:04:49.012Z,200.66
2024-04-19T10:05:49.420Z,202.51
2024-04-19T10:06:48.960Z,200.21
2024-04-19T10:07:48.939Z,198.58
2024-04-19T10:08:48.984Z,199.46
2024-04-19T10:09:49.172Z,199.21
2024-04-19T10:10:49.127Z,199.69
2024-04-19T10:11:49.088Z,199.30
2024-04-19T10:12:49.206Z,199.97
2024-04-19T10:13:49.135Z,199.82
2024-04-19T10:14:49.194Z,199.55
2024-04-19T10:15:49.356Z,199.29
2024-04-19T10:16:49.254Z,199.97
2024-04-19T10:17:49.367Z,199.52
2024-04-19T10:18:49.386Z,199.26
2024-04-19T10:19:54.078Z,200.00
2024-04-19T10:20:50.365Z,200.05
2024-04-19T10:21:49.408Z,200.20
2024-04-19T10:22:49.367Z,200.16
2024-04-19T10:23:49.474Z,200.29
2024-04-19T10:24:49.418Z,201.62
2024-04-19T10:25:49.368Z,198.61
2024-04-19T10:26:49.467Z,199.15
2024-04-19T10:27:49.432Z,199.51
2024-04-19T10:28:49.394Z,200.00
2024-04-19T10:29:49.376Z,199.09
2024-04-19T10:30:49.468Z,199.64
2024-04-19T10:31:49.405Z,199.28
2024-04-19T10:32:49.401Z,199.75
2024-04-19T10:33:49.471Z,199.71
2024-04-19T10:34:49.360Z,199.53
2024-04-19T10:35:49.405Z,199.19
2024-04-19T10:36:49.393Z,200.00
2024-04-19T10:37:49.412Z,199.12
2024-04-19T10:38:49.368Z,199.61
2024-04-19T10:39:49.465Z,198.82
2024-04-19T10:40:49.424Z,199.42
2024-04-19T10:41:49.438Z,199.35
2024-04-19T10:42:49.397Z,199.13
2024-04-19T10:43:49.372Z,199.37
2024-04-19T10:44:49.529Z,199.45
2024-04-19T10:45:49.456Z,199.27
2024-04-19T10:46:49.495Z,199.68
2024-04-19T10:47:49.555Z,199.93
2024-04-19T10:48:49.596Z,199.54
2024-04-19T10:49:49.932Z,198.73
2024-04-19T10:50:49.508Z,199.14
2024-04-19T10:51:49.702Z,199.30
2024-04-19T10:52:49.569Z,199.58
2024-04-19T10:53:49.571Z,199.68
2024-04-19T10:54:49.648Z,199.54
2024-04-19T10:55:49.626Z,200.00
2024-04-19T10:56:49.634Z,198.93
2024-04-19T10:57:49.760Z,199.35
2024-04-19T10:58:49.685Z,199.23
2024-04-19T10:59:49.707Z,199.29
2024-04-19T11:00:49.847Z,198.65
2024-04-19T11:01:49.810Z,199.10
2024-04-19T11:02:52.168Z,198.85
2024-04-19T11:03:49.921Z,198.88
2024-04-19T11:04:49.884Z,198.67
2024-04-19T11:05:49.771Z,198.53
2024-04-19T11:06:49.833Z,196.23
2024-04-19T11:07:49.778Z,197.14
2024-04-19T11:08:49.786Z,199.00
2024-04-19T11:09:49.942Z,198.94
2024-04-19T11:10:49.799Z,199.69
2024-04-19T11:11:49.911Z,200.00
2024-04-19T11:12:49.863Z,199.98
2024-04-19T11:13:49.854Z,199.93
2024-04-19T11:14:49.793Z,200.00
2024-04-19T11:15:56.954Z,199.83
2024-04-19T11:16:50.816Z,199.91
2024-04-19T11:17:49.979Z,200.29
2024-04-19T11:18:49.960Z,201.12
2024-04-19T11:19:49.794Z,202.18
2024-04-19T11:20:56.866Z,204.34
2024-04-19T11:21:50.978Z,200.05
2024-04-19T11:22:49.833Z,200.73
2024-04-19T11:23:52.055Z,202.15
2024-04-19T11:24:49.826Z,204.02
2024-04-19T11:25:49.807Z,207.05
2024-04-19T11:26:49.828Z,200.00
2024-04-19T11:27:49.939Z,199.25
2024-04-19T11:28:49.892Z,199.71
2024-04-19T11:29:49.865Z,198.63
2024-04-19T11:30:49.975Z,199.16
2024-04-19T11:31:49.917Z,199.37
2024-04-19T11:32:49.898Z,199.45
2024-04-19T11:33:49.937Z,199.28
2024-04-19T11:34:49.941Z,198.71
2024-04-19T11:35:49.977Z,199.80
2024-04-19T11:36:50.015Z,199.13
2024-04-19T11:37:50.028Z,199.98
2024-04-19T11:38:50.051Z,199.91
2024-04-19T11:39:50.109Z,199.43
2024-04-19T11:40:50.113Z,198.70
2024-04-19T11:41:50.111Z,199.92
2024-04-19T11:42:50.155Z,199.08
2024-04-19T11:43:50.193Z,198.96
2024-04-19T11:44:50.171Z,199.61
2024-04-19T11:45:50.248Z,199.35
2024-04-19T11:46:50.482Z,199.32
2024-04-19T11:47:50.346Z,199.05
2024-04-19T11:48:50.347Z,200.00
2024-04-19T11:49:50.287Z,199.52
2024-04-19T11:50:50.320Z,199.43
2024-04-19T11:51:50.381Z,199.04
2024-04-19T11:52:50.332Z,199.11
2024-04-19T11:53:50.356Z,199.15
2024-04-19T11:54:50.478Z,199.27
2024-04-19T11:55:50.397Z,199.44
2024-04-19T11:56:50.424Z,199.32
2024-04-19T11:57:51.759Z,198.40
2024-04-19T11:58:50.421Z,199.29
2024-04-19T11:59:50.458Z,198.76
2024-04-19T12:00:50.544Z,198.43
2024-04-19T12:01:50.528Z,198.51
2024-04-19T12:02:50.563Z,198.57
2024-04-19T12:03:50.761Z,199.61
2024-04-19T12:04:50.718Z,199.29
2024-04-19T12:05:50.553Z,198.18
2024-04-19T12:06:50.652Z,198.90
2024-04-19T12:07:50.593Z,198.60
2024-04-19T12:08:50.608Z,198.80
2024-04-19T12:09:50.669Z,198.37
2024-04-19T12:10:50.647Z,198.48
2024-04-19T12:13:29.870Z,198.65
2024-04-19T12:14:39.125Z,198.72
2024-04-19T12:15:42.826Z,198.75
2024-04-19T12:16:29.569Z,198.81
2024-04-19T12:16:57.846Z,198.81
2024-04-19T12:17:51.892Z,198.86
2024-04-19T12:18:50.904Z,199.41
2024-04-19T12:19:50.942Z,200.32
2024-04-19T12:20:52.252Z,200.80
2024-04-19T12:21:51.319Z,201.24
2024-04-19T12:22:59.524Z,199.21
2024-04-19T12:23:52.689Z,199.23
2024-04-19T12:24:51.161Z,198.99
2024-04-19T12:25:51.655Z,198.73
2024-04-19T12:26:50.910Z,198.62
2024-04-19T12:27:50.907Z,197.96
2024-04-19T12:28:54.851Z,198.27
2024-04-19T12:29:51.827Z,198.29
2024-04-19T12:30:50.952Z,197.54
2024-04-19T12:31:50.799Z,197.99
2024-04-19T12:32:50.842Z,197.95
2024-04-19T12:33:50.892Z,197.00
2024-04-19T12:34:50.787Z,197.22
2024-04-19T12:35:50.879Z,196.67
2024-04-19T12:36:50.827Z,197.80
2024-04-19T12:37:50.794Z,197.08